Tiempo atmosférico en la estación meteorológica de Granada Aeropuerto, Granada (567 m.)



Fecha
DESCASC
Temp. máxima en grados centígrados (hora)
DESCASC
Temp. mínima en grados centígrados (hora)
DESCASC
Temp. media en grados centígrados
DESCASC
Racha de viento máxima en m/sg (hora)
DESCASC
Velocidad máxima media en intervalos de 10 minutos(hora)
DESCASC
Precipitaciones diarias en mm
DESCASC
Precipitaciones de 00:00 a 06:00 en mm
DESCASC
Precipitaciones de 06:00 a 12:00 en mm
DESCASC
Precipitaciones de 12:00 a 18:00 en mm
DESCASC
Precipitaciones de 18:00 a 24:00 en mm
DESCASC
27-01-2020 14.3 (16:50) -2.1 (08:10) 6.1 4.17 (18:00) 2.78 (18:00) 0 0 0 0 0
26-01-2020 13.4 (14:40) 3.4 (23:50) 8.4 7.78 (15:40) 4.72 (15:10) 1 1 0 0 0
25-01-2020 11.7 (14:10) 6.4 (00:00) 9 10.83 (07:10) 6.94 (07:10) 18.6 2.1 14.8 1.5 0.2
24-01-2020 13.8 (13:30) 5.9 (00:00) 9.9 10.28 (21:20) 6.11 (22:40) 1 0.4 0.6 0 0
23-01-2020 14.6 (14:00) 2.4 (00:00) 8.5 12.5 (12:40) 8.33 (13:00) 0 0 0 0 0
22-01-2020 10.1 (14:50) 2 (00:00) 6.1 7.22 (02:00) 4.72 (02:00) 4.8 1.1 0 2.7 1
21-01-2020 9.5 (16:00) 2.1 (00:00) 5.8 7.78 (02:40) 3.89 (12:20) 1.8 0 0 0 1.8
20-01-2020 8.7 (15:30) 2.1 (00:00) 5.4 15 (02:30) 8.89 (02:40) 0 0 0 0 0
19-01-2020 11.3 (01:40) 4.5 (00:00) 7.9 13.89 (23:30) 8.06 (23:50) 1.7 0.6 0 1.1 0
18-01-2020 10.5 (16:20) 2.1 (00:00) 6.3 5 (15:40) 2.78 (21:40) 3.9 0 1.1 0.1 2.7
17-01-2020 14.7 (16:00) -1.6 (-00:0) 6.5 5 (14:30) 3.33 (18:10) 0 0 0 0 0
16-01-2020 16.4 (16:00) -4.2 (-00:0) 6.1 5.83 (19:20) 4.44 (19:10) 0 0 0 0 0
15-01-2020 16 (16:00) -3.2 (-00:0) 6.4 5 (16:50) 3.61 (16:50) 0 0 0 0 0
14-01-2020 12.5 (15:20) -5 (-00:0) 3.8 6.67 (16:40) 4.72 (16:50) 0 0 0 0 0
13-01-2020 15 (16:30) -4.3 (-00:0) 5.3 6.67 (19:10) 4.17 (19:30) 0 0 0 0 0
12-01-2020 14.4 (16:30) -3.7 (-00:0) 5.3 5 (19:40) 2.78 (19:10) 0 0 0 0 0
11-01-2020 14.8 (16:20) -3.3 (-00:0) 5.8 5.83 (00:10) 3.61 (20:30) 0 0 0 0 0
10-01-2020 14 (14:40) -2.5 (-00:0) 5.8 12.5 (14:40) 8.33 (14:50) 0 0 0 0 0
09-01-2020 14.6 (15:50) -2.3 (-00:0) 6.2 5 (18:30) 3.33 (21:00) 0 0 0 0 0
08-01-2020 17.2 (16:30) -4.1 (-00:0) 6.6 3.06 (11:30) 1.94 (18:50) 0 0 0 0 0
07-01-2020 17.1 (16:10) -3.6 (-00:0) 6.8 4.72 (18:30) 2.78 (18:50) 0 0 0 0 0
06-01-2020 15.2 (16:50) -2.8 (-00:0) 6.2 4.17 (19:20) 2.22 (19:20) 0 0 0 0 0
05-01-2020 15.4 (17:00) 0 (00:00) 7.7 4.72 (18:30) 3.33 (18:40) 0 0 0 0 0
04-01-2020 15 (16:10) 3 (00:00) 9 6.67 (19:10) 4.44 (16:40) 0 0 0 0 0
03-01-2020 14.9 (16:30) -2.1 (-00:0) 6.4 5 (18:40) 2.78 (18:20) 0 0 0 0 0
02-01-2020 16.7 (16:10) -2 (-00:0) 7.4 5 (18:30) 3.06 (18:50) 0 0 0 0 0
01-01-2020 17.1 (16:00) -1.9 (-00:0) 7.6 4.72 (18:40) 2.5 (18:50) 0 0 0 0 0
31-12-2019 15.5 (15:30) -1.9 (-00:0) 6.8 8.89 (14:40) 6.39 (14:40) 0 0 0 0 0
30-12-2019 14.7 (15:00) -2.2 (-00:0) 6.2 8.89 (14:50) 6.11 (14:50) 0 0 0 0 0

Gráficas

Temp. máximas Temp. mínimas Temp. medias Precipitaciones Rachas de viento máximas Velocidades máximas media en intervalos de 10 minutos

Datos horarios

Fecha y hora oficial Temperatura (ºC) Velocidad del viento (km/h) Dirección del viento Racha (km/h) Dirección de racha Precipitación (mm) Presión (hPa) Tendencia (hPa) Humedad (%)
2020-01-28 23:00:00 7 0 Calma 8 Sudoeste 0 959.8 0.8 96
2020-01-28 22:00:00 8.1 5 Sudoeste 15 Sudoeste 0 959.8 1.4 94
2020-01-28 21:00:00 8.9 5 Sudoeste 13 Sudoeste 0 959.4 1.3 92
2020-01-28 20:00:00 10.2 7 Sudoeste 15 Sudoeste 0 959 1.1 87
2020-01-28 19:00:00 11.7 13 Sudoeste 17 Oeste 0 958.4 0.3 80
2020-01-28 18:00:00 15.6 6 Oeste 11 Oeste 0 958.1 -0.2 65
2020-01-28 17:00:00 16.6 0 Calma 8 Noroeste 0 957.9 -0.9 59
2020-01-28 16:00:00 16 5 Noroeste 13 Noroeste 0 958.1 -2 60
2020-01-28 15:00:00 15.3 3 Oeste 18 Sudoeste 0 958.3 -2.4 61
2020-01-28 14:00:00 14.5 4 Sur 11 Sur 0 958.8 -1.9 63
2020-01-28 13:00:00 12.3 2 Oeste 8 Oeste 0 960.1 -0.7 68
2020-01-28 12:00:00 10.1 3 Norte 8 Norte 0 960.7 0.5 74
2020-01-28 11:00:00 8.5 0 Calma 4 Este 0 960.7 1.1 79
2020-01-28 10:00:00 4.8 0 Calma 4 Sudeste 0 960.8 1.3 95
2020-01-28 09:00:00 1.9 0 Calma 5 Sur 0 960.2 0.8 96
2020-01-28 08:00:00 2.9 0 Calma 5 Sudoeste 0 959.6 0.3 97
2020-01-28 07:00:00 4 2 Sudoeste 5 Sur 0 959.5 -0.3 97
2020-01-28 06:00:00 3.8 2 Sur 11 Noroeste 0 959.4 -0.6 97
2020-01-28 05:00:00 3 0 Calma 5 Sudeste 0 959.3 -0.8 97
2020-01-28 04:00:00 2.1 0 Calma 8 Sur 0 959.8 -0.6 97
2020-01-28 03:00:00 2.5 0 Calma 15 Norte 0 960 0.1 96
2020-01-28 02:00:00 3.1 5 Sudoeste 8 Sudoeste 0 960.1 0.2 96
2020-01-28 01:00:00 3.1 0 Calma 4 Sur 0 960.4 0.6 94
2020-01-28 00:00:00 4.3 3 Oeste 8 Noroeste 0 959.9 0.3 93
2020-01-27 23:00:00 5.4 3 Sudoeste 8 Oeste 0 959.9 0.8 91
2020-01-27 22:00:00 6.2 2 Sudoeste 11 Sudoeste 0 959.8 1.2 88
2020-01-27 21:00:00 7.8 8 Sudoeste 11 Sudoeste 0 959.6 1.6 82
2020-01-27 20:00:00 9.3 4 Sudoeste 13 Sudoeste 0 959.1 1.4 77
2020-01-27 19:00:00 10.9 5 Oeste 15 Norte 0 958.6 0.7 68
2020-01-27 18:00:00 12.8 10 Oeste 15 Oeste 0 958 -0.2 61
2020-01-27 17:00:00 14 0 Calma 11 Noroeste 0 957.7 -1.3 54
2020-01-27 16:00:00 13.6 3 Sudoeste 13 Sudoeste 0 957.9 -2 54
2020-01-27 15:00:00 12.4 2 Oeste 13 Noroeste 0 958.2 -2.4 57
2020-01-27 14:00:00 10.9 0 Calma 8 Norte 0 959 -1.8 63
2020-01-27 13:00:00 8.4 5 Norte 11 Norte 0 959.9 -0.8 74
2020-01-27 12:00:00 6.4 0 Calma 8 Norte 0 960.6 0.3 82
2020-01-27 11:00:00 3.7 0 Calma 8 Noroeste 0 960.8 1.1 92
2020-01-27 10:00:00 1.5 0 Calma 8 Oeste 0 960.7 1.3 97
2020-01-27 09:00:00 -1.1 4 Oeste 8 Oeste 0 960.3 1.1 97
2020-01-27 08:00:00 -1.7 0 Calma 4 Sudeste 0 959.7 0.4 97
2020-01-27 07:00:00 -1.5 0 Calma 4 Sudoeste 0 959.4 -0.3 97
2020-01-27 06:00:00 -0.9 0 Calma 2 Noroeste 0 959.2 -0.5 97
2020-01-27 05:00:00 -0.7 0 Calma 8 Sur 0 959.3 -0.6 97
2020-01-27 04:00:00 -0.1 0 Calma 5 Sudoeste 0 959.7 -0.6 97
2020-01-27 03:00:00 0.7 4 Oeste 8 Oeste 0 959.7 -0.7 97
2020-01-27 02:00:00 0.8 0 Calma 8 Sur 0 959.9 -0.1 95
2020-01-27 01:00:00 1.9 0 Calma 8 Sur 0 960.3 0.5 94
2020-01-27 00:00:00 3.8 2 Nordeste 15 Oeste 0 960.4 1.1 94
2020-01-26 23:00:00 4.7 9 Sudoeste 15 Sur 0 960 1.3 92
2020-01-26 22:00:00 4.8 5 Sudoeste 13 Sudoeste 0 959.8 1.8 91
2020-01-26 21:00:00 5.8 9 Oeste 17 Oeste 0 959.3 1.9 86
2020-01-26 20:00:00 7.7 6 Sudoeste 18 Oeste 0 958.7 1.6 79
2020-01-26 19:00:00 8.4 10 Sudoeste 17 Norte 0 958 1.1 77
2020-01-26 18:00:00 11.6 8 Norte 21 Norte 0 957.4 0.4 59
2020-01-26 17:00:00 11.4 12 Norte 18 Norte 0 957.1 -0.3 56
2020-01-26 16:00:00 12.2 8 Noroeste 28 Noroeste 0 956.9 -1.3 53
2020-01-26 15:00:00 12.5 10 Norte 22 Norte 0 957 -1.4 53
2020-01-26 14:00:00 12.5 3 Oeste 17 Oeste 0 957.4 -0.8 63
2020-01-26 13:00:00 11.9 3 Oeste 13 Oeste 0 958.2 0.7 67
2020-01-26 12:00:00 10.8 2 Oeste 11 Noroeste 0 958.4 1.6 79
2020-01-26 11:00:00 8.5 4 Norte 8 Noroeste 0 958.2 2.3 97
2020-01-26 10:00:00 7.7 0 Calma 8 Sudeste 0 957.5 2.3 98
2020-01-26 09:00:00 7.2 0 Calma 5 Norte 0 956.8 2.1 98
2020-01-26 08:00:00 7.3 2 Este 5 Este 0 955.9 1.5 98
2020-01-26 07:00:00 7.4 0 Calma 4 Noroeste 0 955.2 1 98
2020-01-26 06:00:00 7.3 0 Calma 4 Este 0 954.7 0.8 98
2020-01-26 05:00:00 7.2 3 Este 4 Este 0.1 954.4 0.8 98
2020-01-26 04:00:00 7.2 0 Calma 5 Oeste 0.9 954.2 0.8 98
2020-01-26 03:00:00 7.2 4 Oeste 5 Oeste 0 953.9 0.8 97
2020-01-26 02:00:00 7.2 0 Calma 4 Oeste 0 953.6 0.8 96
2020-01-26 01:00:00 7.1 0 Calma 5 Sur 0 953.4 1 96
2020-01-26 00:00:00 7.5 3 Sur 5 Sudeste 0 953.1 1 95
2020-01-25 23:00:00 7.8 4 Este 8 Sudeste 0 952.8 1.3 93
2020-01-25 22:00:00 8.4 3 Sur 18 Sur 0.2 952.4 1.6 86
2020-01-25 21:00:00 8.9 10 Sur 21 Sudoeste 0 952.1 1.8 80
2020-01-25 20:00:00 8.6 5 Sur 13 Sur 0 951.5 1.2 89
2020-01-25 19:00:00 8.9 6 Sur 18 Sur 0 950.8 0.6 88
2020-01-25 18:00:00 9.4 9 Este 17 Sudeste 0.1 950.3 0.6 84
2020-01-25 17:00:00 9.3 4 Sudeste 8 Sudeste 0.2 950.3 -0.1 89
2020-01-25 16:00:00 9.4 0 Calma 22 Sudoeste 1.2 950.2 -1.5 87
2020-01-25 15:00:00 11.2 17 Sudeste 30 Sudeste 0 949.7 -2.6 71
2020-01-25 14:00:00 10.8 22 Sudeste 30 Sudeste 0 950.4 -1.7 75
2020-01-25 13:00:00 8.3 7 Nordeste 15 Nordeste 0 951.7 -0.3 84
2020-01-25 12:00:00 6.8 14 Este 33 Este 0.1 952.3 0.5 91
2020-01-25 11:00:00 6.5 22 Este 35 Este 2.4 952.1 0.8 95
2020-01-25 10:00:00 6.7 15 Este 24 Este 5.5 952 1.6 96
2020-01-25 09:00:00 6.9 11 Oeste 17 Oeste 4.6 951.8 1.8 94
2020-01-25 08:00:00 7.5 6 Sudoeste 39 Sur 1.9 951.3 1 96
2020-01-25 07:00:00 8.5 12 Sur 35 Sudoeste 0.3 950.4 -0.4 85
2020-01-25 06:00:00 8.6 16 Sudeste 28 Sudeste 0.3 950 -1.3 88
2020-01-25 05:00:00 7.6 3 Nordeste 15 Nordeste 0 950.3 -1.3 94
2020-01-25 04:00:00 7.4 0 Calma 8 Sur 0.1 950.8 -1 95
2020-01-25 03:00:00 7.8 3 Sudoeste 11 Sudoeste 0.5 951.3 -0.8 94
2020-01-25 02:00:00 8.3 6 Oeste 18 Noroeste 1.1 951.6 -0.4 88
2020-01-25 01:00:00 9.1 3 Oeste 21 Sur 0.1 951.8 -0.2 79
2020-01-25 00:00:00 10 8 Sur 33 Sur 0 952.1 0.2 70
2020-01-24 23:00:00 10.3 21 Sur 35 Sur 0 952 0.6 67
2020-01-24 22:00:00 10.8 18 Sur 37 Sur 0 952 1 64
2020-01-24 21:00:00 9.4 0 Calma 11 Nordeste 0 951.9 0.6 79
2020-01-24 20:00:00 10.2 2 Norte 17 Sur 0 951.4 0.1 72
2020-01-24 19:00:00 10.6 2 Sur 26 Sur 0 951 -0.6 67
2020-01-24 18:00:00 12 16 Sur 26 Sur 0 951.3 -0.6 61
2020-01-24 17:00:00 12.7 12 Sur 22 Sur 0 951.3 -1.2 60
2020-01-24 16:00:00 13.2 8 Sur 28 Sur 0 951.6 -1.7 56
2020-01-24 15:00:00 13.7 19 Sur 30 Sur 0 951.9 -2 58
2020-01-24 14:00:00 13.3 5 Sudoeste 15 Sudoeste 0 952.5 -1.9 60
2020-01-24 13:00:00 13.2 5 Este 15 Nordeste 0 953.3 -0.7 63
2020-01-24 12:00:00 11.4 7 Nordeste 18 Este 0 953.9 0.2 71
2020-01-24 11:00:00 9.5 4 Nordeste 9 Nordeste 0 954.4 1.1 81
2020-01-24 10:00:00 7.5 5 Este 13 Sudeste 0 954 1 93
2020-01-24 09:00:00 6.3 4 Sudeste 13 Sudeste 0 953.7 0.7 96
2020-01-24 08:00:00 6.3 0 Calma 5 Este 0.1 953.3 0.5 95
2020-01-24 07:00:00 6.6 0 Calma 2 Nordeste 0.5 953 0 94
2020-01-24 06:00:00 6.8 0 Calma 8 Norte 0.4 953 0.2 91
2020-01-24 05:00:00 6.7 5 Sudeste 11 Sudeste 0 952.8 0.2 91
2020-01-24 04:00:00 6.9 3 Sudeste -- -- 0 953 0.8 91
2020-01-24 03:00:00 7.4 3 Sudeste 8 Noroeste 0 952.8 0.9 86
2020-01-24 02:00:00 8.3 2 Noroeste 18 Norte 0 952.6 0.8 76
2020-01-24 01:00:00 7.4 3 Sudoeste 8 Oeste 0 952.2 0.4 82
2020-01-24 00:00:00 7.8 2 Oeste 11 Sudeste 0 951.9 0.5 76
2020-01-23 23:00:00 9.5 9 Este 26 Este 0 951.8 0.7 66
2020-01-23 22:00:00 10.2 8 Sudeste 21 Sudeste 0 951.8 1.2 62
2020-01-23 21:00:00 10.1 8 Sur 28 Sudeste 0 951.4 1.1 62
2020-01-23 20:00:00 8.1 7 Sudeste 15 Sudeste 0 951.1 1 72
2020-01-23 19:00:00 9.3 0 Calma 15 Sudoeste 0 950.6 0.6 64
2020-01-23 18:00:00 12.1 10 Sur 33 Sur 0 950.3 0.4 53
2020-01-23 17:00:00 13.6 21 Sur 32 Sur 0 950.1 -0.2 50
2020-01-23 16:00:00 13.5 14 Sur 35 Sur 0 950 -0.9 53
2020-01-23 15:00:00 13.8 20 Sur 35 Sur 0 949.9 -1.5 53
2020-01-23 14:00:00 14.5 20 Sur 45 Sudeste 0 950.3 -1.3 51
2020-01-23 13:00:00 13.8 30 Sur 45 Sur 0 950.9 -0.4 53
2020-01-23 12:00:00 11.8 20 Sudeste 33 Sudeste 0 951.4 0.5 63
2020-01-23 11:00:00 7.7 3 Norte 9 Norte 0 951.6 0.8 80
2020-01-23 10:00:00 6.1 5 Este 15 Sudeste 0 951.3 0.9 87
2020-01-23 09:00:00 5 2 Sudeste 17 Este 0 950.9 0.7 92
2020-01-23 08:00:00 5 3 Sudeste 15 Este 0 950.8 0.5 88
2020-01-23 07:00:00 4.4 4 Sudeste 11 Sudeste 0 950.4 -0.1 94
2020-01-23 06:00:00 4.3 2 Este 15 Sur 0 950.2 -0.5 94
2020-01-23 05:00:00 4.1 5 Nordeste 13 Nordeste 0 950.3 -0.4 95
2020-01-23 04:00:00 4.2 4 Norte 13 Norte 0 950.5 -0.4 96
2020-01-23 03:00:00 4.1 0 Calma 13 Este 0 950.7 0.2 98
2020-01-23 02:00:00 2.9 0 Calma 11 Este 0 950.7 0.2 97
2020-01-23 01:00:00 3.1 0 Calma 11 Este 0 950.9 0.2 95
2020-01-23 00:00:00 4.8 7 Este 11 Este 0 950.5 0.2 93
2020-01-22 23:00:00 5.4 5 Sudeste 18 Sudeste 0 950.5 0.7 87
2020-01-22 22:00:00 7 8 Sudeste 22 Sudeste 0 950.7 1.2 84
2020-01-22 21:00:00 6.8 12 Este 18 Sudeste 0 950.3 1 87
2020-01-22 20:00:00 7.3 3 Este 13 Norte 0 949.8 1 83
2020-01-22 19:00:00 6.9 2 Sudeste 21 Este 1 949.5 1 85
2020-01-22 18:00:00 7.5 6 Sur 13 Sur 1.5 949.3 0.9 92
2020-01-22 17:00:00 8 4 Sur 13 Sudoeste 0.9 948.8 0.1 91
2020-01-22 16:00:00 9.1 8 Sudoeste 15 Sudoeste 0.3 948.5 -1 83
2020-01-22 15:00:00 10 3 Sur 11 Sudeste 0 948.4 -1.6 72
2020-01-22 14:00:00 9.7 2 Sur 8 Sudeste 0 948.7 -1 71
2020-01-22 13:00:00 9.2 0 Calma 8 Sur 0 949.5 0.1 72
2020-01-22 12:00:00 7.8 0 Calma 5 Sudeste 0 950 0.9 79
2020-01-22 11:00:00 6.2 3 Sur 13 Este 0 949.7 1 84
2020-01-22 10:00:00 5.2 4 Este 21 Este 0 949.4 1.5 88
2020-01-22 09:00:00 3.7 4 Sudeste 11 Sudeste 0 949.1 1.3 95
2020-01-22 08:00:00 3.6 5 Sudeste 15 Este 0 948.7 0.6 93
2020-01-22 07:00:00 4 10 Este 21 Este 0 947.9 -0.3 94
2020-01-22 06:00:00 2.9 4 Este 11 Sur 0 947.8 -0.4 96
2020-01-22 05:00:00 2.9 4 Sudeste 11 Sur 0 948.1 -0.3 95
2020-01-22 04:00:00 4.2 3 Sudeste 11 Este 0 948.2 -0.1 93
2020-01-22 03:00:00 5.2 0 Calma 21 Este 0 948.2 -0.1 91
2020-01-22 02:00:00 5.7 17 Este 26 Este 0 948.4 0.5 90
2020-01-22 01:00:00 5.4 10 Nordeste 21 Nordeste 1.1 948.3 0.7 95
2020-01-22 00:00:00 5.4 8 Este 13 Este 0.7 948.3 1.2 95
2020-01-21 23:00:00 5.8 3 Este 8 Este 0.1 947.9 1.2 94
2020-01-21 22:00:00 5.8 7 Nordeste 17 Este 0.5 947.6 1.6 92
2020-01-21 21:00:00 6.4 8 Este 15 Este 0.5 947.1 2 87
2020-01-21 20:00:00 7.2 5 Este 13 Este 0 946.7 1.9 79
2020-01-21 19:00:00 7.7 5 Este 8 Este 0 946 1.6 79
2020-01-21 18:00:00 8.6 6 Sudeste 13 Este 0 945.1 0.5 72
2020-01-21 17:00:00 9.2 3 Este 5 Este 0 944.8 -0.3 65
2020-01-21 16:00:00 9.4 4 Sudeste 11 Sudeste 0 944.4 -1.4 64
2020-01-21 15:00:00 9.1 0 Calma 13 Sudeste 0 944.6 -1.1 63
2020-01-21 14:00:00 9 2 Sur 11 Sur 0 945.1 -1.2 64
2020-01-21 13:00:00 8.6 4 Sudeste 21 Nordeste 0 945.8 -0.2 66
2020-01-21 12:00:00 7.6 9 Norte 22 Norte 0 945.7 0 72
2020-01-21 11:00:00 6.4 3 Oeste 21 Norte 0 946.3 0.2 76
2020-01-21 10:00:00 5.1 5 Noroeste 18 Norte 0 946 0 80
2020-01-21 09:00:00 4.1 3 Oeste 11 Norte 0 945.7 -0.1 85
2020-01-21 08:00:00 3.5 3 Oeste 13 Oeste 0 946.1 -0.6 89
2020-01-21 07:00:00 2.5 0 Calma 8 Oeste 0 946 -1 92
2020-01-21 06:00:00 2.3 5 Oeste 13 Sudoeste 0 945.8 -1.4 92
2020-01-21 05:00:00 2.4 5 Oeste 11 Oeste 0 946.7 -0.8 90
2020-01-21 04:00:00 3.6 2 Sudeste 18 Nordeste 0 947 -1.2 81
2020-01-21 03:00:00 4.6 10 Este 28 Nordeste 0 947.2 -1 78
2020-01-21 02:00:00 3.8 3 Nordeste 8 Nordeste 0 947.5 -0.6 81
2020-01-21 01:00:00 2.6 0 Calma 11 Norte 0 948.2 0.3 86
2020-01-21 00:00:00 4.5 2 Nordeste 18 Nordeste 0 948.2 0.5 78
2020-01-20 23:00:00 4.9 6 Este 22 Nordeste 0 948.1 0.8 75
2020-01-20 22:00:00 4.5 5 Sudeste 17 Nordeste 0 947.9 0.9 78
2020-01-20 21:00:00 4.9 4 Sudeste 30 Nordeste 0 947.7 1.2 77
2020-01-20 20:00:00 5.2 16 Nordeste 33 Nordeste 0 947.3 1.2 75
2020-01-20 19:00:00 5.5 19 Nordeste 33 Nordeste 0 947 1.3 74
2020-01-20 18:00:00 6.5 12 Nordeste 33 Nordeste 0 946.5 0.9 69
2020-01-20 17:00:00 8.3 13 Nordeste 39 Nordeste 0 946.1 -0.4 62
2020-01-20 16:00:00 7.6 24 Nordeste 42 Nordeste 0 945.7 -1.4 65
2020-01-20 15:00:00 7.9 18 Nordeste 37 Nordeste 0 945.6 -1.7 63
2020-01-20 14:00:00 6.6 12 Nordeste 39 Nordeste 0 946.5 -1.3 67
2020-01-20 13:00:00 5.6 15 Nordeste 35 Nordeste 0 947.1 -1 69
2020-01-20 12:00:00 4.4 21 Nordeste 42 Nordeste 0 947.3 -0.8 72
2020-01-20 11:00:00 3.8 29 Norte 42 Nordeste 0 947.8 -0.7 76
2020-01-20 10:00:00 2.9 27 Norte 42 Norte 0 948.1 -0.4 81
2020-01-20 09:00:00 2.4 23 Nordeste 41 Nordeste 0 948.1 -0.9 82
2020-01-20 08:00:00 2.3 23 Norte 42 Norte 0 948.5 -0.6 82
2020-01-20 07:00:00 2.1 22 Norte 41 Nordeste 0 948.5 -1 85
2020-01-20 06:00:00 2.5 26 Norte 39 Nordeste 0 949 -0.7 82
2020-01-20 05:00:00 2.6 22 Norte 39 Nordeste 0 949.1 -0.9 85
2020-01-20 04:00:00 3.4 23 Nordeste 42 Nordeste 0 949.5 -0.9 83
2020-01-20 03:00:00 4 28 Nordeste 54 Norte 0 949.7 -0.6 78
2020-01-20 02:00:00 3.7 25 Norte 42 Norte 0 950 0.2 83
2020-01-20 01:00:00 4.2 24 Nordeste 41 Nordeste 0 950.4 0.2 79
2020-01-20 00:00:00 4.6 26 Nordeste 50 Nordeste 0 950.3 0.6 77
2020-01-19 23:00:00 5.2 27 Nordeste 48 Nordeste 0 949.8 0.3 74
2020-01-19 22:00:00 5.2 24 Nordeste 45 Nordeste 0 950.2 0.7 77
2020-01-19 21:00:00 6.4 22 Nordeste 45 Nordeste 0 949.7 0 72
2020-01-19 20:00:00 6.3 9 Nordeste 28 Nordeste 0 949.5 -0.3 82
2020-01-19 19:00:00 6.7 14 Nordeste 26 Nordeste 0 949.5 -0.5 77
2020-01-19 18:00:00 7 5 Nordeste 26 Norte 0 949.7 -0.4 79
2020-01-19 17:00:00 7.4 18 Norte 30 Nordeste 0 949.8 -0.4 77
2020-01-19 16:00:00 7.7 10 Norte 21 Norte 0.1 950 -1.2 78
2020-01-19 15:00:00 5.9 15 Noroeste 37 Nordeste 1 950.1 -2 88
2020-01-19 14:00:00 9.2 11 Nordeste 22 Noroeste 0 950.2 -1.8 69
2020-01-19 13:00:00 9.4 10 Noroeste 21 Noroeste 0 951.2 -0.7 70
2020-01-19 12:00:00 9.3 2 Norte 13 Norte 0 952.1 0.4 73
2020-01-19 11:00:00 8.1 8 Noroeste 22 Norte 0 952 0.3 80
2020-01-19 10:00:00 7.4 3 Norte 15 Norte 0 951.9 0 84
2020-01-19 09:00:00 7.1 6 Sudeste 24 Este 0 951.7 -0.4 83
2020-01-19 08:00:00 6.9 3 Sudoeste 28 Nordeste 0 951.7 -1.4 82
2020-01-19 07:00:00 7.2 11 Noroeste 24 Noroeste 0 951.9 -1.9 79
2020-01-19 06:00:00 6.5 0 Calma 18 Norte 0 952.1 -2.8 88
2020-01-19 05:00:00 7.3 0 Calma 15 Noroeste 0 953.1 -2.6 95
2020-01-19 04:00:00 8.1 7 Oeste 21 Sudoeste 0 953.8 -2.5 93
2020-01-19 03:00:00 9.1 15 Sudoeste 22 Sudoeste 0 954.9 -1.5 91
2020-01-19 02:00:00 10.9 5 Oeste 32 Noroeste 0 955.7 -1.3 82
2020-01-19 01:00:00 9 6 Noroeste 15 Oeste 0.6 956.3 -1.8 99
2020-01-19 00:00:00 8.8 2 Noroeste 11 Noroeste 1.3 956.4 -2.6 99
2020-01-18 23:00:00 9 0 Calma 8 Sur 0.9 957 -2.8 98
2020-01-18 22:00:00 8.9 3 Este 15 Este 0.2 958.1 -1.9 97
2020-01-18 21:00:00 9.1 5 Sudeste 11 Sudeste 0 959 -1.7 97
2020-01-18 20:00:00 9.3 0 Calma 8 Sur 0.3 959.8 -1.4 95
2020-01-18 19:00:00 9.7 2 Sudoeste 5 Sudoeste 0 960 -1.7 93
2020-01-18 18:00:00 10.2 3 Noroeste 5 Nordeste 0 960.7 -1.4 86
2020-01-18 17:00:00 10.4 2 Sudeste 5 Sudeste 0 961.2 -1.8 84
2020-01-18 16:00:00 10.3 3 Este 18 Oeste 0 961.7 -3 81
2020-01-18 15:00:00 9.7 0 Calma 13 Este 0 962.1 -3.5 86
2020-01-18 14:00:00 8.2 0 Calma 13 Este 0 963 -2.7 92
2020-01-18 13:00:00 6.8 3 Nordeste 11 Este 0.1 964.7 -0.4 94
2020-01-18 12:00:00 6.4 5 Este 8 Este 0.8 965.6 1.3 95
2020-01-18 11:00:00 5.8 0 Calma 11 Norte 0.3 965.7 1.9 94
2020-01-18 10:00:00 5.3 5 Noroeste 9 Noroeste 0 965.1 1.1 96
2020-01-18 09:00:00 3.7 2 Sur 8 Oeste 0 964.3 0.2 97
2020-01-18 08:00:00 3.4 0 Calma 8 Sudeste 0 963.8 -0.5 97
2020-01-18 07:00:00 3 0 Calma 8 Noroeste 0 964 -0.3 97
2020-01-18 06:00:00 3.3 0 Calma 13 Sudeste 0 964.1 -0.2 97
2020-01-18 05:00:00 2.6 0 Calma 8 Sudeste 0 964.3 -0.4 97
2020-01-18 04:00:00 2.3 0 Calma 8 Sudoeste 0 964.3 -0.9 96
2020-01-18 03:00:00 3.5 6 Sudoeste 11 Sudoeste 0 964.3 -1.4 96
2020-01-18 02:00:00 3.4 5 Sur 8 Sudoeste 0 964.7 -1.1 96
2020-01-18 01:00:00 4.2 0 Calma 5 Oeste 0 965.2 -0.7 96
2020-01-18 00:00:00 4 0 Calma 8 Este 0 965.7 0.1 94
2020-01-17 23:00:00 4.4 2 Sudeste 8 Sudeste 0 965.8 1 93
2020-01-17 22:00:00 5.4 0 Calma 13 Sur 0 965.9 1.4 92
2020-01-17 21:00:00 6.8 0 Calma 15 Este 0 965.6 2 88
2020-01-17 20:00:00 7.6 11 Sudoeste 15 Sudoeste 0 964.8 1.3 86
2020-01-17 19:00:00 9.3 9 Sudoeste 17 Oeste 0 964.5 0.7 79
2020-01-17 18:00:00 12.4 10 Oeste 15 Oeste 0 963.6 -0.7 66
2020-01-17 17:00:00 14.5 2 Oeste 11 Oeste 0 963.5 -1.7 55
2020-01-17 16:00:00 14.6 4 Oeste 11 Sudoeste 0 963.8 -2.3 54
2020-01-17 15:00:00 13.9 9 Oeste 18 Oeste 0 964.3 -2.5 51
2020-01-17 14:00:00 12.6 3 Oeste 13 Noroeste 0 965.2 -1.7 52
2020-01-17 13:00:00 9.8 3 Norte 11 Norte 0 966.1 0 59
2020-01-17 12:00:00 7.3 0 Calma 8 Nordeste 0 966.8 1.3 72
2020-01-17 11:00:00 4.7 0 Calma 5 Noroeste 0 966.9 1.4 78
2020-01-17 10:00:00 2.1 0 Calma 8 Sur 0 966.1 1.4 91
2020-01-17 09:00:00 0.2 0 Calma 11 Norte 0 965.5 1.4 94
2020-01-17 08:00:00 -1.3 0 Calma 4 Oeste 0 965.5 1.5 94
2020-01-17 07:00:00 -0.8 4 Sur 5 Sudoeste 0 964.7 0.8 93
2020-01-17 06:00:00 -0.6 0 Calma 5 Sur 0 964.1 0.7 94
2020-01-17 05:00:00 -1.1 0 Calma 5 Sudoeste 0 964 -0.1 93
2020-01-17 04:00:00 -0.8 3 Sur 8 Sur 0 963.9 -0.1 93
2020-01-17 03:00:00 -0.4 5 Sudeste 8 Sudeste 0 963.4 -0.1 91
2020-01-17 02:00:00 0.5 0 Calma 8 Sur 0 964.1 1 88
2020-01-17 01:00:00 1 3 Sudoeste 5 Sudoeste 0 964 1.3 86
2020-01-17 00:00:00 1.4 5 Sur 5 Sudoeste 0 963.5 1.3 84
2020-01-16 23:00:00 1.7 0 Calma 4 Sur 0 963.1 1.5 81
2020-01-16 22:00:00 4.2 4 Sur 9 Sudoeste 0 962.7 1.7 72
2020-01-16 21:00:00 5.4 3 Sudoeste 8 Este 0 962.2 2 67
2020-01-16 20:00:00 8.5 0 Calma 21 Sur 0 961.6 1.3 54
2020-01-16 19:00:00 9 14 Sudoeste -- -- 0 961 0.9 53
2020-01-16 18:00:00 14.7 5 Oeste 15 Noroeste 0 960.2 -0.1 34
2020-01-16 17:00:00 16.2 10 Oeste 18 Oeste 0 960.3 -0.6 30
2020-01-16 16:00:00 16.2 5 Noroeste 13 Oeste 0 960.1 -1.8 34
2020-01-16 15:00:00 14.8 2 Noroeste 8 Oeste 0 960.3 -2.4 36
2020-01-16 14:00:00 12.4 0 Calma 8 Noroeste 0 960.9 -2.1 49
2020-01-16 13:00:00 10.6 0 Calma 5 Norte 0 961.9 -0.7 51
2020-01-16 12:00:00 7.6 0 Calma 5 Sudoeste 0 962.7 0.1 61
2020-01-16 11:00:00 4 0 Calma 4 Sudeste 0 963 1.1 76
2020-01-16 10:00:00 -0.2 0 Calma 4 Sur 0 962.6 0.9 91
2020-01-16 09:00:00 -3.7 0 Calma 8 Sudeste 0 962.6 1 93
2020-01-16 08:00:00 -3.6 3 Sudeste 5 Sudeste 0 961.9 0 94
2020-01-16 07:00:00 -3.5 0 Calma 4 Oeste 0 961.7 -0.3 93
2020-01-16 06:00:00 -3.3 0 Calma 4 Sudeste 0 961.6 -0.3 92
2020-01-16 05:00:00 -2.6 0 Calma 4 Sur 0 961.9 -0.1 92
2020-01-16 04:00:00 -2.4 0 Calma 2 Sudoeste 0 962 0.1 91
2020-01-16 03:00:00 -1.8 0 Calma 5 Este 0 961.9 -0.1 91
2020-01-16 02:00:00 -1.5 0 Calma 5 Sur 0 962 0.3 91
2020-01-16 01:00:00 -0.8 0 Calma 8 Sudoeste 0 961.9 0.4 88
2020-01-16 00:00:00 0.3 5 Sudoeste 8 Sudoeste 0 962 0.7 87
2020-01-15 23:00:00 0.9 4 Sudoeste 8 Sudoeste 0 961.7 0.6 83
2020-01-15 22:00:00 1.6 2 Oeste 8 Oeste 0 961.5 0.9 84
2020-01-15 21:00:00 3.5 0 Calma 8 Sur 0 961.3 1.2 76
2020-01-15 20:00:00 5.1 4 Sudeste 11 Nordeste 0 961.1 1.4 70
2020-01-15 19:00:00 7.1 3 Sur 15 Sudoeste 0 960.6 1 64
2020-01-15 18:00:00 13.8 5 Sudoeste 17 Oeste 0 960.1 0.4 40
2020-01-15 17:00:00 15.6 11 Oeste 18 Oeste 0 959.7 -0.6 35
2020-01-15 16:00:00 15.9 6 Oeste 15 Oeste 0 959.6 -1.3 37
2020-01-15 15:00:00 13.5 0 Calma 8 Este 0 959.7 -1.8 49
2020-01-15 14:00:00 11.3 0 Calma 8 Sudeste 0 960.3 -1.1 56
2020-01-15 13:00:00 8.9 0 Calma 5 Sur 0 960.9 0 63
2020-01-15 12:00:00 4.6 0 Calma 4 Norte 0 961.5 1.3 78
2020-01-15 11:00:00 3.1 0 Calma -- -- 0 961.4 1.7 86
2020-01-15 10:00:00 -1 0 Calma 2 Norte 0 960.9 1.7 95
2020-01-15 09:00:00 -2.6 0 Calma 5 Oeste 0 960.2 1.5 95
2020-01-15 08:00:00 -2.7 3 Sudoeste 5 Sur 0 959.7 1 95
2020-01-15 07:00:00 -2.6 0 Calma 2 Oeste 0 959.2 0.5 95
2020-01-15 06:00:00 -2 0 Calma 5 Sudeste 0 958.7 -0.1 95
2020-01-15 05:00:00 -2.1 3 Sudoeste 5 Sudoeste 0 958.7 0 95
2020-01-15 04:00:00 -2.6 0 Calma 2 Sudoeste 0 958.7 -0.1 94
2020-01-15 03:00:00 -1.8 2 Sur 4 Sur 0 958.8 0.3 94
2020-01-15 02:00:00 -1.4 0 Calma 2 Sudeste 0 958.7 0.6 94
2020-01-15 01:00:00 -0.7 0 Calma 5 Sudoeste 0 958.8 0.9 94
2020-01-15 00:00:00 -0.5 6 Sudoeste 11 Sudoeste 0 958.5 0.8 93
2020-01-14 23:00:00 1.1 0 Calma 5 Sur 0 958.1 0.7 92
2020-01-14 22:00:00 2.5 5 Sur 13 Sur 0 957.9 0.8 86
2020-01-14 21:00:00 4.1 2 Nordeste 15 Sudoeste 0 957.7 1.4 81
2020-01-14 20:00:00 5.8 8 Sudoeste 18 Sudoeste 0 957.4 1.4 77
2020-01-14 19:00:00 7.3 4 Sudoeste 15 Sudoeste 0 957.1 1.2 70
2020-01-14 18:00:00 9.4 10 Sudoeste 21 Sudoeste 0 956.3 0.2 65
2020-01-14 17:00:00 11.2 15 Oeste 24 Oeste 0 956 -0.6 59
2020-01-14 16:00:00 12 13 Sudoeste 22 Oeste 0 955.9 -1.6 51
2020-01-14 15:00:00 11.7 12 Oeste 21 Oeste 0 956.1 -2.1 52
2020-01-14 14:00:00 10.5 2 Este 11 Oeste 0 956.6 -1.7 52
2020-01-14 13:00:00 8.4 3 Oeste 8 Norte 0 957.5 -0.3 55
2020-01-14 12:00:00 5.4 0 Calma 5 Sudoeste 0 958.2 0.5 69
2020-01-14 11:00:00 0.9 3 Noroeste 8 Noroeste 0 958.3 0.6 85
2020-01-14 10:00:00 -1 0 Calma 5 Norte 0 957.8 0.4 90
2020-01-14 09:00:00 -3.8 5 Sudoeste 11 Sudoeste 0 957.7 0.7 93
2020-01-14 08:00:00 -4.7 0 Calma 4 Sur 0 957.7 0.6 93
2020-01-14 07:00:00 -4.3 3 Sur 5 Sudeste 0 957.4 -0.1 93
2020-01-14 06:00:00 -3.7 0 Calma 11 Sur 0 957 -0.7 94
2020-01-14 05:00:00 -3.7 5 Sur 8 Sur 0 957.1 -0.8 94
2020-01-14 04:00:00 -3.2 3 Oeste 5 Oeste 0 957.5 -0.7 94
2020-01-14 03:00:00 -2.7 2 Sudoeste 4 Sudoeste 0 957.7 -0.6 93
2020-01-14 02:00:00 -1.8 3 Oeste 11 Sudoeste 0 957.9 -0.4 93
2020-01-14 01:00:00 -0.9 8 Sudoeste 11 Sudoeste 0 958.2 0.2 93
2020-01-14 00:00:00 -0.7 0 Calma 11 Sur 0 958.3 0.1 90
2020-01-13 23:00:00 1.2 3 Sudoeste 11 Sur 0 958.3 0.2 86
2020-01-13 22:00:00 2.7 0 Calma 8 Sudeste 0 958 0.3 81
2020-01-13 21:00:00 5 0 Calma 5 Sur 0 958.2 1 70
2020-01-13 20:00:00 7.2 3 Oeste 24 Sudoeste 0 958.1 0.8 63
2020-01-13 19:00:00 8.1 12 Sudoeste 17 Oeste 0 957.7 0.1 61
2020-01-13 18:00:00 12.5 5 Sudoeste 17 Sudoeste 0 957.2 -0.9 44
2020-01-13 17:00:00 14.5 11 Oeste 18 Oeste 0 957.3 -1.7 35
2020-01-13 16:00:00 14.6 12 Oeste 18 Oeste 0 957.6 -2.5 32
2020-01-13 15:00:00 14 2 Oeste 8 Oeste 0 958.1 -2.7 37
2020-01-13 14:00:00 11.4 3 Oeste 8 Oeste 0 959 -2.3 49
2020-01-13 13:00:00 8.6 2 Norte 9 Norte 0 960.1 -0.9 59
2020-01-13 12:00:00 7.2 0 Calma 5 Este 0 960.8 -0.2 62
2020-01-13 11:00:00 3.2 0 Calma 4 Norte 0 961.3 0.5 79
2020-01-13 10:00:00 0.1 0 Calma 4 Sur 0 961 0.4 94
2020-01-13 09:00:00 -3.5 0 Calma 8 Sur 0 961 0.4 95
2020-01-13 08:00:00 -3.4 4 Sur 9 Sur 0 960.8 -0.1 95
2020-01-13 07:00:00 -3.2 0 Calma 5 Sudeste 0 960.6 -0.7 95
2020-01-13 06:00:00 -3.3 3 Sudeste 5 Norte 0 960.6 -1 95
2020-01-13 05:00:00 -2.8 2 Sudoeste 8 Sur 0 960.9 -0.8 95
2020-01-13 04:00:00 -2.2 0 Calma 4 Sur 0 961.3 -1 95
2020-01-13 03:00:00 -2 0 Calma 5 Sur 0 961.6 -1 94
2020-01-13 02:00:00 -1.4 4 Sur 5 Sur 0 961.7 -0.7 94
2020-01-13 01:00:00 -0.5 0 Calma 5 Sur 0 962.3 0 93
2020-01-13 00:00:00 0.3 5 Sur 8 Sur 0 962.6 0.3 93
2020-01-12 23:00:00 0.8 0 Calma 8 Sudoeste 0 962.4 0.6 90
2020-01-12 22:00:00 1.9 0 Calma 8 Sur 0 962.3 1.2 87
2020-01-12 21:00:00 4 0 Calma 8 Sudoeste 0 962.3 1.8 80
2020-01-12 20:00:00 5.8 8 Sudoeste 18 Sur 0 961.8 1.1 73
2020-01-12 19:00:00 6.3 9 Sur 13 Sur 0 961.1 0.2 73
2020-01-12 18:00:00 12.9 4 Sudoeste 13 Oeste 0 960.5 -0.9 49
2020-01-12 17:00:00 14.1 8 Oeste 15 Oeste 0 960.7 -1.4 47
2020-01-12 16:00:00 14.1 5 Oeste 13 Oeste 0 960.9 -2.3 47
2020-01-12 15:00:00 13.4 0 Calma 8 Oeste 0 961.4 -3 47
2020-01-12 14:00:00 11.7 0 Calma 8 Oeste 0 962.1 -2.7 58
2020-01-12 13:00:00 9.1 0 Calma 8 Norte 0 963.2 -1.4 66
2020-01-12 12:00:00 5.7 0 Calma 5 Norte 0 964.4 0.1 78
2020-01-12 11:00:00 2.8 0 Calma -- -- 0 964.8 0.7 88
2020-01-12 10:00:00 0.4 0 Calma 8 Sur 0 964.6 0.8 94
2020-01-12 09:00:00 -3.3 0 Calma 2 Noroeste 0 964.3 0.6 95
2020-01-12 08:00:00 -3.4 3 Sur 4 Sur 0 964.1 0.3 94
2020-01-12 07:00:00 -2.9 0 Calma 4 Sur 0 963.8 -0.3 95
2020-01-12 06:00:00 -2.6 0 Calma 4 Sur 0 963.7 -0.2 94
2020-01-12 05:00:00 -1.8 0 Calma 4 Sudoeste 0 963.8 0.1 95
2020-01-12 04:00:00 -1.4 0 Calma 5 Sudoeste 0 964.1 0.4 94
2020-01-12 03:00:00 -0.7 0 Calma 8 Sudoeste 0 963.9 0.1 95
2020-01-12 02:00:00 -0.2 4 Sur -- -- 0 963.7 0.1 94
2020-01-12 01:00:00 -0.1 0 Calma 4 Sur 0 963.7 0.4 93
2020-01-12 00:00:00 0.7 0 Calma 5 Sudoeste 0 963.8 0.8 91
2020-01-11 23:00:00 1.5 0 Calma 4 Sudoeste 0 963.6 1 89
2020-01-11 22:00:00 2.6 0 Calma 4 Sudeste 0 963.3 1.4 83
2020-01-11 21:00:00 4.6 0 Calma 15 Sudoeste 0 963 1.6 76
2020-01-11 20:00:00 5.8 4 Sur 13 Nordeste 0 962.6 1.4 70
2020-01-11 19:00:00 7.7 7 Sudoeste 15 Sudoeste 0 961.9 1 63
2020-01-11 18:00:00 12.3 4 Sudoeste 13 Oeste 0 961.4 0.3 47
2020-01-11 17:00:00 14.2 4 Oeste 11 Oeste 0 961.2 -0.5 42
2020-01-11 16:00:00 13.9 0 Calma 8 Noroeste 0 960.9 -1.8 42
2020-01-11 15:00:00 13.7 0 Calma 11 Nordeste 0 961.1 -2.5 44
2020-01-11 14:00:00 12.3 3 Este 9 Este 0 961.7 -2 50
2020-01-11 13:00:00 10 2 Este 8 Este 0 962.7 -0.2 56
2020-01-11 12:00:00 8.1 0 Calma 5 Este 0 963.6 1.2 59
2020-01-11 11:00:00 4.8 0 Calma 4 Nordeste 0 963.7 1.7 73
2020-01-11 10:00:00 0.5 0 Calma -- -- 0 962.9 1.5 88
2020-01-11 09:00:00 -2.9 0 Calma 5 Sudeste 0 962.4 1.3 92
2020-01-11 08:00:00 -2.6 0 Calma 4 Sur 0 962 0.9 92
2020-01-11 07:00:00 -1.9 0 Calma 4 Este 0 961.4 0.5 92
2020-01-11 06:00:00 -1.8 2 Sur 8 Sur 0 961.1 0.3 91
2020-01-11 05:00:00 -1.1 0 Calma 8 Sur 0 961.1 0.6 90
2020-01-11 04:00:00 -0.9 3 Oeste 8 Sudoeste 0 960.9 0.3 88
2020-01-11 03:00:00 0.5 3 Sudoeste 15 Sur 0 960.8 0 82
2020-01-11 02:00:00 1.6 9 Sudoeste 13 Sudoeste 0 960.5 0.2 81
2020-01-11 01:00:00 3.5 3 Sudoeste 21 Nordeste 0 960.6 0.8 71
2020-01-11 00:00:00 6 13 Nordeste 22 Norte 0 960.8 1.6 60
2020-01-10 23:00:00 7.8 15 Norte 33 Norte 0 960.3 1.4 53
2020-01-10 22:00:00 5.2 5 Sudoeste 13 Sudoeste 0 959.8 1.5 67
2020-01-10 21:00:00 7.3 0 Calma 15 Norte 0 959.2 1.8 61
2020-01-10 20:00:00 7.8 6 Noroeste 24 Norte 0 958.9 2.2 61
2020-01-10 19:00:00 9.8 18 Norte 39 Nordeste 0 958.3 1.8 54
2020-01-10 18:00:00 11.6 19 Nordeste 35 Nordeste 0 957.4 0.7 48
2020-01-10 17:00:00 13 22 Nordeste 39 Nordeste 0 956.7 -0.2 42
2020-01-10 16:00:00 13.5 18 Nordeste 37 Nordeste 0 956.5 -1.4 43
2020-01-10 15:00:00 13.8 25 Nordeste 45 Norte 0 956.7 -2.5 47
2020-01-10 14:00:00 12.7 9 Norte 32 Norte 0 956.9 -3 60
2020-01-10 13:00:00 9.9 9 Oeste 15 Noroeste 0 957.9 -1.8 72
2020-01-10 12:00:00 7.1 5 Noroeste 9 Oeste 0 959.2 0.2 83
2020-01-10 11:00:00 3.4 0 Calma 5 Noroeste 0 959.9 1.1 94
2020-01-10 10:00:00 0.9 0 Calma 11 Sur 0 959.7 0.6 97
2020-01-10 09:00:00 -1.8 0 Calma 4 Sudeste 0 959 0.2 97
2020-01-10 08:00:00 -1.4 0 Calma 5 Sudoeste 0 958.8 0.1 97
2020-01-10 07:00:00 -1.2 4 Sur 8 Oeste 0 959.1 0 97
2020-01-10 06:00:00 -1.4 0 Calma 5 Sudoeste 0 958.8 -0.8 97
2020-01-10 05:00:00 -0.3 5 Sudoeste 8 Sudoeste 0 958.7 -1 97
2020-01-10 04:00:00 -0.5 0 Calma 4 Este 0 959.1 -1 96
2020-01-10 03:00:00 0.4 4 Sur 11 Sur 0 959.6 -0.7 96
2020-01-10 02:00:00 0.5 0 Calma 8 Sudeste 0 959.7 0 96
2020-01-10 01:00:00 1.3 2 Noroeste 13 Sur 0 960.1 0.7 95
2020-01-10 00:00:00 1.9 0 Calma 5 Sudoeste 0 960.3 0.6 93
2020-01-09 23:00:00 3.3 0 Calma 4 Sudoeste 0 959.7 -0.4 90
2020-01-09 22:00:00 4.9 0 Calma 13 Sudoeste 0 959.4 0.3 87
2020-01-09 21:00:00 6.4 12 Sur 13 Sudoeste 0 959.7 1.1 84
2020-01-09 20:00:00 7.7 6 Sudoeste 17 Oeste 0 960.1 1.3 79
2020-01-09 19:00:00 8.6 8 Oeste 18 Sudoeste 0 959.1 0.2 72
2020-01-09 18:00:00 13.6 3 Sur 5 Sudoeste 0 958.6 -0.7 54
2020-01-09 17:00:00 14.3 2 Oeste 8 Oeste 0 958.8 -1.2 52
2020-01-09 16:00:00 14.4 4 Oeste 13 Oeste 0 958.9 -2 51
2020-01-09 15:00:00 13.5 6 Oeste 17 Oeste 0 959.3 -2.4 51
2020-01-09 14:00:00 12.3 4 Oeste 11 Oeste 0 960 -2.1 56
2020-01-09 13:00:00 10.1 2 Oeste 8 Oeste 0 960.9 -0.8 65
2020-01-09 12:00:00 7.9 0 Calma 5 Norte 0 961.7 0.6 73
2020-01-09 11:00:00 4.1 3 Norte 5 Norte 0 962.1 1.2 84
2020-01-09 10:00:00 1.3 0 Calma 8 Sudoeste 0 961.7 0.8 95
2020-01-09 09:00:00 -1.6 0 Calma 5 Sudoeste 0 961.1 0.2 96
2020-01-09 08:00:00 -1.8 0 Calma 4 Sur 0 960.9 -0.2 95
2020-01-09 07:00:00 -1.6 0 Calma 4 Sudoeste 0 960.9 -0.4 95
2020-01-09 06:00:00 -1.5 0 Calma 4 Oeste 0 960.9 -0.6 94
2020-01-09 05:00:00 -0.6 0 Calma 5 Sur 0 961.1 -0.4 94
2020-01-09 04:00:00 -0.5 0 Calma 4 Noroeste 0 961.3 -0.3 93
2020-01-09 03:00:00 -0.2 0 Calma 5 Sudeste 0 961.5 -0.3 92
2020-01-09 02:00:00 0.3 0 Calma 4 Sudoeste 0 961.5 -0.3 91
2020-01-09 01:00:00 0.8 0 Calma 8 Sur 0 961.6 0.2 90
2020-01-09 00:00:00 1.7 0 Calma 5 Sur 0 961.8 0.8 87
2020-01-08 23:00:00 2.1 0 Calma 8 Sudoeste 0 961.8 1.2 88
2020-01-08 22:00:00 3 0 Calma 5 Sur 0 961.4 1.3 86
2020-01-08 21:00:00 4.2 0 Calma -- -- 0 961 0.9 80
2020-01-08 20:00:00 6.5 6 Oeste 8 Oeste 0 960.6 0.7 73
2020-01-08 19:00:00 8.7 5 Este 11 Este 0 960.1 0.3 63
2020-01-08 18:00:00 14.8 2 Este 5 Este 0 960.1 0.1 41
2020-01-08 17:00:00 16.6 0 Calma 4 Sudeste 0 959.9 -0.8 37
2020-01-08 16:00:00 16.1 0 Calma 5 Este 0 959.8 -1.7 34
2020-01-08 15:00:00 14.7 0 Calma 8 Norte 0 960 -2.5 39
2020-01-08 14:00:00 13.4 0 Calma 5 Nordeste 0 960.7 -2.3 42
2020-01-08 13:00:00 11 0 Calma 8 Norte 0 961.5 -1.3 48
2020-01-08 12:00:00 7.5 0 Calma 11 Norte 0 962.5 0 63
2020-01-08 11:00:00 3.9 0 Calma 2 Sudoeste 0 963 0.7 80
2020-01-08 10:00:00 1.1 0 Calma -- -- 0 962.8 0.5 90
2020-01-08 09:00:00 -3.9 0 Calma 2 Sur 0 962.5 0.3 93
2020-01-08 08:00:00 -3.1 0 Calma 2 Este 0 962.3 0.1 94
2020-01-08 07:00:00 -2.7 0 Calma 4 Sur 0 962.3 -0.1 94
2020-01-08 06:00:00 -2.4 0 Calma 4 Sudoeste 0 962.2 -0.2 94
2020-01-08 05:00:00 -1.8 4 Sur 5 Sur 0 962.2 -0.3 94
2020-01-08 04:00:00 -2 0 Calma -- -- 0 962.4 -0.3 92
2020-01-08 03:00:00 -1 0 Calma 8 Sudoeste 0 962.4 -0.7 93
2020-01-08 02:00:00 -0.5 5 Sudoeste 8 Sudoeste 0 962.5 -0.6 93
2020-01-08 01:00:00 -0.1 0 Calma 4 Sudoeste 0 962.7 -0.4 91
2020-01-08 00:00:00 0.6 4 Sudoeste 5 Sudoeste 0 963.1 0.2 90
2020-01-07 23:00:00 1.6 0 Calma 5 Sudoeste 0 963.1 0.4 88
2020-01-07 22:00:00 2.7 3 Sudoeste 9 Sudoeste 0 963.1 0.9 82
2020-01-07 21:00:00 4.3 0 Calma 5 Sur 0 962.9 0.9 78
2020-01-07 20:00:00 7 0 Calma 13 Sur 0 962.7 1.1 67
2020-01-07 19:00:00 8.5 8 Sur 17 Sudeste 0 962.2 0.5 61
2020-01-07 18:00:00 15.4 0 Calma 5 Noroeste 0 962 0 39
2020-01-07 17:00:00 16.7 4 Oeste 13 Oeste 0 961.6 -0.7 32
2020-01-07 16:00:00 16.7 5 Oeste 13 Sudoeste 0 961.7 -1.8 31
2020-01-07 15:00:00 14.9 3 Noroeste 8 Noroeste 0 962 -2.4 38
2020-01-07 14:00:00 13.6 0 Calma 8 Norte 0 962.3 -2.7 47
2020-01-07 13:00:00 11.5 0 Calma 5 Norte 0 963.5 -1.2 50
2020-01-07 12:00:00 8.3 0 Calma 5 Sur 0 964.4 0 62
2020-01-07 11:00:00 4.8 0 Calma 2 Este 0 965 0.8 78
2020-01-07 10:00:00 0.6 2 Este 4 Este 0 964.7 0.7 92
2020-01-07 09:00:00 -3.1 0 Calma 5 Sudeste 0 964.4 0.6 94
2020-01-07 08:00:00 -3.3 0 Calma 4 Sur 0 964.2 0.6 94
2020-01-07 07:00:00 -2.6 0 Calma 4 Sudeste 0 964 0.6 95
2020-01-07 06:00:00 -2.6 0 Calma 4 Sudeste 0 963.8 0.6 94
2020-01-07 05:00:00 -2.2 0 Calma 4 Sudoeste 0 963.6 0.5 94
2020-01-07 04:00:00 -1.2 5 Sur 8 Sur 0 963.4 0 95
2020-01-07 03:00:00 -1.4 0 Calma 5 Sur 0 963.2 -0.1 95
2020-01-07 02:00:00 -0.8 0 Calma 5 Sur 0 963.1 -0.1 94
2020-01-07 01:00:00 -0.2 0 Calma 5 Sur 0 963.4 0.5 94
2020-01-07 00:00:00 0.3 3 Sur 5 Sur 0 963.3 1 92
2020-01-06 23:00:00 1.7 5 Sudeste 8 Sudeste 0 963.2 1.3 90
2020-01-06 22:00:00 3.5 5 Sudoeste 8 Sudoeste 0 962.9 -- 85
2020-01-06 21:00:00 3.8 0 Calma 8 Sudoeste 0 962.3 1.9 82
2020-01-06 20:00:00 5.4 5 Sudoeste 15 Sur 0 961.9 1.8 78
2020-01-06 19:00:00 7 5 Sur 8 Sur 0 -- -- 71
2020-01-06 18:00:00 14.1 0 Calma 5 Sur 0 960.4 0.1 40
2020-01-06 17:00:00 15.1 4 Sudoeste 13 Oeste 0 960.1 -1 42
2020-01-06 16:00:00 14.8 4 Oeste 11 Oeste 0 960.1 -1.7 38
2020-01-06 15:00:00 13.7 2 Oeste 11 Norte 0 960.3 -2.3 43
2020-01-06 14:00:00 12.2 0 Calma 8 Sudoeste 0 961.1 -1.8 54
2020-01-06 13:00:00 9.2 0 Calma 8 Norte 0 961.8 -0.8 65
2020-01-06 12:00:00 6.8 2 Oeste 8 Noroeste 0 962.6 0.6 76
2020-01-06 11:00:00 3.9 0 Calma 5 Sur 0 962.9 1.4 89
2020-01-06 10:00:00 0.2 0 Calma 5 Sur 0 962.6 1.3 95